Hawkins, Texas
Current Conditions -  °F | °C
As of 8:53 PM on Friday 24 Oct 2014 (Local Time) from KTYR Reporting Station
Clear Clear  
Wind Chill: 18°   Ceiling: Unl
Heat Index: 18°   Visibility: 10mi
Dew Point: 15°   Wind: 6mph
Humidity: 81%   Direction: 160°SSE
Pressure: 30.11"   Gusts: NA
Location:  32.59°N, 95.2°W
Report Text: KTYR 250153Z 16005KT 10SM CLR 18/15 A3011 RMK AO2 SLP193 T01830150
Loading
Personal Weather Stations






























Interactive Weather Map
Tropical Storm Tracking
New forecast layout! Learn more

10-Day Weather Forecast

Advertisements
Track Severe Weather on mobile